Terminal Aerodrome Forecast
Issued by NWS Green Bay, WI

Home | Current Version | Previous Version | Text Only | Print | Product List | Glossary On
Versions: 1 2 3 4 5 6 7 8 9 10 11 12 13 14 15 16 17 18 19 20 21 22 23 24 25 26 27 28 29 30 31 32 33 34 35 36 37 38 39 40 41 42 43 44 45 46
000
FTUS43 KGRB 180521
TAFGRB
TAF
KGRB 180521Z 1806/1906 VRB03KT 4SM BR OVC004
      TEMPO 1806/1810 2SM -FZDZSN BR
     FM181000 24003KT 4SM BR OVC003
     FM181500 23006KT P6SM BKN006
     FM181900 23010KT P6SM BKN010
     FM182100 23010KT P6SM BKN040
     FM190400 23012G23KT P6SM BKN100=

USA.gov is the U.S. government's official web portal to all federal, state and local government web resources and services.